sensor_id;sensor_type;location;lat;lon;timestamp;pressure;altitude;pressure_sealevel;temperature;humidity
56040;BME280;43937;41.366;2.072;2023-05-10T00:01:57;101069.28;;;21.57;66.98
56040;BME280;43937;41.366;2.072;2023-05-10T00:04:22;101068.81;;;21.41;67.02
56040;BME280;43937;41.366;2.072;2023-05-10T00:06:52;101071.06;;;21.26;67.50
56040;BME280;43937;41.366;2.072;2023-05-10T00:09:18;101064.25;;;21.28;67.74
56040;BME280;43937;41.366;2.072;2023-05-10T00:11:43;101059.78;;;21.27;67.59
56040;BME280;43937;41.366;2.072;2023-05-10T00:14:08;101061.38;;;21.17;67.79
56040;BME280;43937;41.366;2.072;2023-05-10T00:16:34;101038.00;;;20.94;67.47
56040;BME280;43937;41.366;2.072;2023-05-10T00:18:59;101061.06;;;21.07;68.03
56040;BME280;43937;41.366;2.072;2023-05-10T00:21:25;101054.63;;;21.13;68.00
56040;BME280;43937;41.366;2.072;2023-05-10T00:23:50;101050.38;;;21.10;67.90
56040;BME280;43937;41.366;2.072;2023-05-10T00:26:16;101047.22;;;21.07;68.13
56040;BME280;43937;41.366;2.072;2023-05-10T00:28:41;101042.81;;;20.99;68.33
56040;BME280;43937;41.366;2.072;2023-05-10T00:31:07;101046.59;;;21.04;68.27
56040;BME280;43937;41.366;2.072;2023-05-10T00:33:32;101053.91;;;20.99;68.73
56040;BME280;43937;41.366;2.072;2023-05-10T00:35:58;101030.25;;;20.78;68.65
56040;BME280;43937;41.366;2.072;2023-05-10T00:38:49;101044.19;;;20.90;68.60
56040;BME280;43937;41.366;2.072;2023-05-10T00:41:14;101041.81;;;20.93;68.47
56040;BME280;43937;41.366;2.072;2023-05-10T00:43:40;101040.06;;;20.99;68.39
56040;BME280;43937;41.366;2.072;2023-05-10T00:46:06;101018.28;;;20.84;68.84
56040;BME280;43937;41.366;2.072;2023-05-10T00:48:32;101035.06;;;20.89;68.41
56040;BME280;43937;41.366;2.072;2023-05-10T00:50:58;101036.13;;;20.88;68.86
56040;BME280;43937;41.366;2.072;2023-05-10T00:53:24;101039.41;;;20.78;68.69
56040;BME280;43937;41.366;2.072;2023-05-10T00:55:50;101037.66;;;20.84;68.66
56040;BME280;43937;41.366;2.072;2023-05-10T00:58:16;101035.66;;;20.73;68.83
56040;BME280;43937;41.366;2.072;2023-05-10T01:00:42;101037.22;;;20.62;69.51
56040;BME280;43937;41.366;2.072;2023-05-10T01:03:11;101031.91;;;20.61;69.79
56040;BME280;43937;41.366;2.072;2023-05-10T01:05:37;101021.91;;;20.59;69.73
56040;BME280;43937;41.366;2.072;2023-05-10T01:08:02;101021.91;;;20.59;70.19
56040;BME280;43937;41.366;2.072;2023-05-10T01:10:28;101010.81;;;20.34;70.25
56040;BME280;43937;41.366;2.072;2023-05-10T01:12:54;101024.59;;;20.41;70.58
56040;BME280;43937;41.366;2.072;2023-05-10T01:15:20;101017.44;;;20.33;70.67
56040;BME280;43937;41.366;2.072;2023-05-10T01:17:47;101008.97;;;20.28;70.78
56040;BME280;43937;41.366;2.072;2023-05-10T01:20:14;101009.41;;;20.25;71.25
56040;BME280;43937;41.366;2.072;2023-05-10T01:31:06;101004.59;;;20.14;71.58
56040;BME280;43937;41.366;2.072;2023-05-10T01:34:05;100995.19;;;20.22;71.05
56040;BME280;43937;41.366;2.072;2023-05-10T01:36:37;100987.91;;;20.27;70.28
56040;BME280;43937;41.366;2.072;2023-05-10T01:39:10;101003.75;;;20.13;71.37
56040;BME280;43937;41.366;2.072;2023-05-10T01:44:31;101001.44;;;20.10;71.50
56040;BME280;43937;41.366;2.072;2023-05-10T01:47:14;100994.69;;;20.00;72.04
56040;BME280;43937;41.366;2.072;2023-05-10T01:49:53;101001.97;;;19.94;72.35
56040;BME280;43937;41.366;2.072;2023-05-10T01:52:25;101003.25;;;19.92;72.74
56040;BME280;43937;41.366;2.072;2023-05-10T01:55:02;100998.56;;;19.92;73.18
56040;BME280;43937;41.366;2.072;2023-05-10T01:57:34;101005.38;;;19.89;73.30
56040;BME280;43937;41.366;2.072;2023-05-10T02:00:02;100982.94;;;19.73;73.83
56040;BME280;43937;41.366;2.072;2023-05-10T02:02:37;101005.63;;;19.88;73.36
56040;BME280;43937;41.366;2.072;2023-05-10T02:05:05;101010.06;;;19.89;73.27
56040;BME280;43937;41.366;2.072;2023-05-10T02:07:33;101001.09;;;19.94;73.26
56040;BME280;43937;41.366;2.072;2023-05-10T02:10:02;101005.34;;;19.96;73.25
56040;BME280;43937;41.366;2.072;2023-05-10T02:12:28;101012.00;;;19.88;73.15
56040;BME280;43937;41.366;2.072;2023-05-10T02:14:55;101009.97;;;20.02;72.99
56040;BME280;43937;41.366;2.072;2023-05-10T02:17:22;101000.97;;;20.13;72.50
56040;BME280;43937;41.366;2.072;2023-05-10T02:19:49;100998.22;;;20.13;72.15
56040;BME280;43937;41.366;2.072;2023-05-10T02:22:17;100985.88;;;20.16;71.87
56040;BME280;43937;41.366;2.072;2023-05-10T02:24:44;100975.72;;;20.10;71.78
56040;BME280;43937;41.366;2.072;2023-05-10T02:27:11;100987.16;;;20.13;71.88
56040;BME280;43937;41.366;2.072;2023-05-10T02:29:37;100984.84;;;20.10;71.35
56040;BME280;43937;41.366;2.072;2023-05-10T02:32:04;100978.88;;;20.13;71.07
56040;BME280;43937;41.366;2.072;2023-05-10T02:34:30;100985.28;;;20.07;71.75
56040;BME280;43937;41.366;2.072;2023-05-10T02:36:56;100966.84;;;20.01;71.64
56040;BME280;43937;41.366;2.072;2023-05-10T02:39:23;100981.09;;;19.98;71.56
56040;BME280;43937;41.366;2.072;2023-05-10T02:41:50;100943.38;;;19.85;71.79
56040;BME280;43937;41.366;2.072;2023-05-10T02:44:20;100952.72;;;19.84;71.75
56040;BME280;43937;41.366;2.072;2023-05-10T02:46:47;100942.56;;;19.78;71.29
56040;BME280;43937;41.366;2.072;2023-05-10T02:49:13;100961.25;;;19.83;71.54
56040;BME280;43937;41.366;2.072;2023-05-10T02:51:44;100978.88;;;20.13;70.80
56040;BME280;43937;41.366;2.072;2023-05-10T02:54:18;100974.75;;;19.98;71.04
56040;BME280;43937;41.366;2.072;2023-05-10T02:56:51;100967.25;;;20.05;70.70
56040;BME280;43937;41.366;2.072;2023-05-10T02:59:18;100980.66;;;20.01;70.85
56040;BME280;43937;41.366;2.072;2023-05-10T03:01:43;100977.41;;;20.11;70.75
56040;BME280;43937;41.366;2.072;2023-05-10T03:04:09;100975.84;;;20.22;70.39
56040;BME280;43937;41.366;2.072;2023-05-10T03:06:34;100969.63;;;20.26;69.98
56040;BME280;43937;41.366;2.072;2023-05-10T03:09:01;100974.94;;;20.28;70.11
56040;BME280;43937;41.366;2.072;2023-05-10T03:18:07;100965.13;;;20.32;69.85
56040;BME280;43937;41.366;2.072;2023-05-10T03:21:04;100971.94;;;20.29;70.10
56040;BME280;43937;41.366;2.072;2023-05-10T03:23:54;100938.56;;;20.31;69.65
56040;BME280;43937;41.366;2.072;2023-05-10T03:26:24;100946.22;;;20.29;70.16
56040;BME280;43937;41.366;2.072;2023-05-10T03:28:52;100932.84;;;20.26;70.01
56040;BME280;43937;41.366;2.072;2023-05-10T03:31:18;100954.31;;;20.30;70.53
56040;BME280;43937;41.366;2.072;2023-05-10T03:33:50;100948.81;;;20.24;70.80
56040;BME280;43937;41.366;2.072;2023-05-10T03:36:16;100947.38;;;20.14;71.45
56040;BME280;43937;41.366;2.072;2023-05-10T03:38:42;100955.75;;;20.08;72.46
56040;BME280;43937;41.366;2.072;2023-05-10T03:41:07;100934.78;;;19.94;71.38
56040;BME280;43937;41.366;2.072;2023-05-10T03:43:33;100958.44;;;20.14;70.76
56040;BME280;43937;41.366;2.072;2023-05-10T03:45:58;100962.69;;;20.17;69.21
56040;BME280;43937;41.366;2.072;2023-05-10T03:48:26;100957.53;;;20.21;67.51
56040;BME280;43937;41.366;2.072;2023-05-10T03:50:51;100951.94;;;20.02;67.11
56040;BME280;43937;41.366;2.072;2023-05-10T03:53:17;100951.16;;;19.95;66.89
56040;BME280;43937;41.366;2.072;2023-05-10T03:55:42;100951.88;;;19.84;65.87
56040;BME280;43937;41.366;2.072;2023-05-10T03:58:11;100953.03;;;20.01;65.48
56040;BME280;43937;41.366;2.072;2023-05-10T04:00:36;100937.34;;;19.95;64.82
56040;BME280;43937;41.366;2.072;2023-05-10T04:03:02;100953.22;;;20.06;63.67
56040;BME280;43937;41.366;2.072;2023-05-10T04:05:28;100953.66;;;20.03;63.73
56040;BME280;43937;41.366;2.072;2023-05-10T04:07:53;100922.38;;;19.78;63.39
56040;BME280;43937;41.366;2.072;2023-05-10T04:10:18;100951.38;;;19.94;61.84
56040;BME280;43937;41.366;2.072;2023-05-10T04:12:44;100949.75;;;19.86;62.20
56040;BME280;43937;41.366;2.072;2023-05-10T04:15:10;100942.59;;;19.72;61.56
56040;BME280;43937;41.366;2.072;2023-05-10T04:17:35;100957.94;;;19.61;59.25
56040;BME280;43937;41.366;2.072;2023-05-10T04:20:01;100948.53;;;19.30;58.54
56040;BME280;43937;41.366;2.072;2023-05-10T04:22:27;100958.88;;;19.41;57.12
56040;BME280;43937;41.366;2.072;2023-05-10T04:24:54;100947.63;;;19.36;57.08
56040;BME280;43937;41.366;2.072;2023-05-10T04:27:19;100949.19;;;19.26;55.91
56040;BME280;43937;41.366;2.072;2023-05-10T04:29:45;100940.97;;;19.12;56.26
56040;BME280;43937;41.366;2.072;2023-05-10T04:32:10;100938.66;;;19.09;54.87
56040;BME280;43937;41.366;2.072;2023-05-10T04:34:36;100930.19;;;19.04;54.23
56040;BME280;43937;41.366;2.072;2023-05-10T04:37:02;100951.38;;;19.10;53.86
56040;BME280;43937;41.366;2.072;2023-05-10T04:39:27;100912.84;;;18.84;53.72
56040;BME280;43937;41.366;2.072;2023-05-10T04:41:53;100948.00;;;19.02;53.36
56040;BME280;43937;41.366;2.072;2023-05-10T04:44:18;100938.69;;;18.96;53.56
56040;BME280;43937;41.366;2.072;2023-05-10T04:46:44;100954.41;;;18.89;53.59
56040;BME280;43937;41.366;2.072;2023-05-10T04:49:09;100947.16;;;19.01;53.25
56040;BME280;43937;41.366;2.072;2023-05-10T04:51:34;100956.78;;;18.85;52.57
56040;BME280;43937;41.366;2.072;2023-05-10T04:54:00;100956.91;;;19.10;52.42
56040;BME280;43937;41.366;2.072;2023-05-10T04:56:25;100952.72;;;18.81;52.31
56040;BME280;43937;41.366;2.072;2023-05-10T04:58:51;100956.75;;;18.92;51.56
56040;BME280;43937;41.366;2.072;2023-05-10T05:01:16;100953.97;;;18.98;50.96
56040;BME280;43937;41.366;2.072;2023-05-10T05:03:42;100957.38;;;18.87;50.16
56040;BME280;43937;41.366;2.072;2023-05-10T05:06:07;100959.00;;;19.08;49.40
56040;BME280;43937;41.366;2.072;2023-05-10T05:08:33;100949.53;;;18.97;49.39
56040;BME280;43937;41.366;2.072;2023-05-10T05:10:58;100959.50;;;18.79;48.68
56040;BME280;43937;41.366;2.072;2023-05-10T05:13:24;100937.88;;;18.69;48.70
56040;BME280;43937;41.366;2.072;2023-05-10T05:15:50;100945.53;;;18.73;48.17
56040;BME280;43937;41.366;2.072;2023-05-10T05:18:15;100940.00;;;18.80;47.61
56040;BME280;43937;41.366;2.072;2023-05-10T05:20:41;100967.06;;;19.16;47.26
56040;BME280;43937;41.366;2.072;2023-05-10T05:23:06;100963.19;;;19.31;46.82
56040;BME280;43937;41.366;2.072;2023-05-10T05:25:31;100950.09;;;19.06;46.63
56040;BME280;43937;41.366;2.072;2023-05-10T05:27:57;100942.69;;;19.07;46.31
56040;BME280;43937;41.366;2.072;2023-05-10T05:30:22;100967.88;;;19.23;46.15
56040;BME280;43937;41.366;2.072;2023-05-10T05:32:48;100948.38;;;19.18;45.81
56040;BME280;43937;41.366;2.072;2023-05-10T05:35:13;100969.34;;;20.09;44.10
56040;BME280;43937;41.366;2.072;2023-05-10T05:37:39;100962.72;;;19.79;44.35
56040;BME280;43937;41.366;2.072;2023-05-10T05:40:05;100984.25;;;19.63;44.98
56040;BME280;43937;41.366;2.072;2023-05-10T05:42:31;100986.59;;;20.62;42.89
56040;BME280;43937;41.366;2.072;2023-05-10T05:44:56;100985.69;;;24.23;36.85
56040;BME280;43937;41.366;2.072;2023-05-10T05:47:22;100969.38;;;25.61;33.64
56040;BME280;43937;41.366;2.072;2023-05-10T05:49:48;100998.34;;;25.16;33.87
56040;BME280;43937;41.366;2.072;2023-05-10T05:52:13;100978.47;;;26.00;32.63
56040;BME280;43937;41.366;2.072;2023-05-10T05:54:39;100972.56;;;25.25;33.42
56040;BME280;43937;41.366;2.072;2023-05-10T05:57:04;100989.97;;;26.36;31.28
56040;BME280;43937;41.366;2.072;2023-05-10T05:59:30;100998.78;;;25.95;31.50
56040;BME280;43937;41.366;2.072;2023-05-10T06:01:55;100975.69;;;26.00;31.62
56040;BME280;43937;41.366;2.072;2023-05-10T06:04:20;100997.38;;;28.30;28.81
56040;BME280;43937;41.366;2.072;2023-05-10T06:06:46;100986.47;;;29.71;26.91
56040;BME280;43937;41.366;2.072;2023-05-10T06:09:12;100990.47;;;30.09;25.21
56040;BME280;43937;41.366;2.072;2023-05-10T06:11:37;101001.22;;;29.97;25.21
56040;BME280;43937;41.366;2.072;2023-05-10T06:14:04;101000.00;;;30.82;24.67
56040;BME280;43937;41.366;2.072;2023-05-10T06:16:31;100972.78;;;29.64;25.10
56040;BME280;43937;41.366;2.072;2023-05-10T06:18:57;100987.94;;;30.81;24.08
56040;BME280;43937;41.366;2.072;2023-05-10T06:21:22;100999.78;;;30.78;24.38
56040;BME280;43937;41.366;2.072;2023-05-10T06:23:48;100988.81;;;31.54;22.85
56040;BME280;43937;41.366;2.072;2023-05-10T06:26:13;100978.97;;;31.03;23.33
56040;BME280;43937;41.366;2.072;2023-05-10T06:28:39;101001.69;;;31.60;23.19
56040;BME280;43937;41.366;2.072;2023-05-10T06:31:05;100987.50;;;32.92;22.02
56040;BME280;43937;41.366;2.072;2023-05-10T06:33:32;100984.63;;;32.78;21.13
56040;BME280;43937;41.366;2.072;2023-05-10T06:35:57;100975.91;;;32.47;22.25
56040;BME280;43937;41.366;2.072;2023-05-10T06:38:23;100984.34;;;32.28;22.06
56040;BME280;43937;41.366;2.072;2023-05-10T06:40:49;100987.72;;;33.10;20.92
56040;BME280;43937;41.366;2.072;2023-05-10T06:43:14;100990.53;;;32.96;21.57
56040;BME280;43937;41.366;2.072;2023-05-10T06:45:40;100978.66;;;33.13;20.92
56040;BME280;43937;41.366;2.072;2023-05-10T06:48:06;100971.66;;;33.51;21.22
56040;BME280;43937;41.366;2.072;2023-05-10T06:50:32;100979.88;;;33.62;20.87
56040;BME280;43937;41.366;2.072;2023-05-10T06:52:58;100970.03;;;33.73;20.32
56040;BME280;43937;41.366;2.072;2023-05-10T06:55:24;100972.38;;;33.57;20.92
56040;BME280;43937;41.366;2.072;2023-05-10T06:57:49;100991.38;;;33.10;21.53
56040;BME280;43937;41.366;2.072;2023-05-10T07:00:16;100969.38;;;33.26;20.96
56040;BME280;43937;41.366;2.072;2023-05-10T07:02:42;100966.09;;;33.46;20.29
56040;BME280;43937;41.366;2.072;2023-05-10T07:05:08;100965.06;;;34.06;20.06
56040;BME280;43937;41.366;2.072;2023-05-10T07:07:33;100965.09;;;34.29;20.00
56040;BME280;43937;41.366;2.072;2023-05-10T07:09:59;100958.81;;;34.94;19.41
56040;BME280;43937;41.366;2.072;2023-05-10T07:12:25;100956.78;;;34.10;20.21
56040;BME280;43937;41.366;2.072;2023-05-10T07:15:39;100955.16;;;33.17;21.09
56040;BME280;43937;41.366;2.072;2023-05-10T07:18:04;100956.91;;;33.41;20.98
56040;BME280;43937;41.366;2.072;2023-05-10T07:20:31;100960.91;;;32.98;20.78
56040;BME280;43937;41.366;2.072;2023-05-10T07:22:56;100966.94;;;33.61;19.91
56040;BME280;43937;41.366;2.072;2023-05-10T07:25:57;100972.34;;;34.66;19.08
56040;BME280;43937;41.366;2.072;2023-05-10T07:28:23;100974.69;;;35.44;19.11
56040;BME280;43937;41.366;2.072;2023-05-10T07:30:51;100963.13;;;35.97;18.34
56040;BME280;43937;41.366;2.072;2023-05-10T07:33:17;100972.56;;;35.09;18.86
56040;BME280;43937;41.366;2.072;2023-05-10T07:35:43;100970.16;;;34.63;18.77
56040;BME280;43937;41.366;2.072;2023-05-10T07:38:08;100967.44;;;33.49;19.92
56040;BME280;43937;41.366;2.072;2023-05-10T07:40:34;100973.44;;;32.40;21.08
56040;BME280;43937;41.366;2.072;2023-05-10T07:42:59;100980.50;;;29.22;24.72
56040;BME280;43937;41.366;2.072;2023-05-10T07:45:26;100979.44;;;30.57;23.43
56040;BME280;43937;41.366;2.072;2023-05-10T07:47:52;100978.75;;;27.58;26.56
56040;BME280;43937;41.366;2.072;2023-05-10T07:50:17;100965.50;;;26.16;29.14
56040;BME280;43937;41.366;2.072;2023-05-10T07:52:43;100973.53;;;25.58;30.43
56040;BME280;43937;41.366;2.072;2023-05-10T07:55:09;100963.72;;;25.11;30.76
56040;BME280;43937;41.366;2.072;2023-05-10T07:57:35;100978.94;;;25.04;31.42
56040;BME280;43937;41.366;2.072;2023-05-10T08:00:00;100973.75;;;24.74;31.64
56040;BME280;43937;41.366;2.072;2023-05-10T08:02:26;100980.19;;;24.57;32.41
56040;BME280;43937;41.366;2.072;2023-05-10T08:04:51;100975.16;;;24.54;32.14
56040;BME280;43937;41.366;2.072;2023-05-10T08:07:18;100969.50;;;24.20;32.75
56040;BME280;43937;41.366;2.072;2023-05-10T08:09:43;100976.75;;;23.88;33.42
56040;BME280;43937;41.366;2.072;2023-05-10T08:12:09;100977.84;;;24.04;33.48
56040;BME280;43937;41.366;2.072;2023-05-10T08:14:35;100972.91;;;24.39;33.03
56040;BME280;43937;41.366;2.072;2023-05-10T08:17:02;100983.22;;;25.11;32.08
56040;BME280;43937;41.366;2.072;2023-05-10T08:19:28;100985.06;;;28.21;28.37
56040;BME280;43937;41.366;2.072;2023-05-10T08:21:54;100981.78;;;26.99;29.96
56040;BME280;43937;41.366;2.072;2023-05-10T08:24:21;100956.28;;;26.47;29.84
56040;BME280;43937;41.366;2.072;2023-05-10T08:26:46;100963.03;;;27.47;29.96
56040;BME280;43937;41.366;2.072;2023-05-10T08:30:50;100981.44;;;28.21;30.55
56040;BME280;43937;41.366;2.072;2023-05-10T08:33:17;100967.91;;;29.80;25.80
56040;BME280;43937;41.366;2.072;2023-05-10T08:35:42;100986.06;;;31.67;23.75
56040;BME280;43937;41.366;2.072;2023-05-10T08:38:08;100992.69;;;32.52;22.41
56040;BME280;43937;41.366;2.072;2023-05-10T08:40:33;100985.31;;;33.03;21.77
56040;BME280;43937;41.366;2.072;2023-05-10T08:43:14;100965.91;;;33.57;21.29
56040;BME280;43937;41.366;2.072;2023-05-10T08:45:44;100982.72;;;33.34;21.66
56040;BME280;43937;41.366;2.072;2023-05-10T08:48:12;100949.06;;;32.96;21.54
56040;BME280;43937;41.366;2.072;2023-05-10T08:50:39;100987.78;;;32.44;22.13
56040;BME280;43937;41.366;2.072;2023-05-10T08:53:14;100988.34;;;32.08;22.14
56040;BME280;43937;41.366;2.072;2023-05-10T08:56:17;100984.00;;;31.97;22.20
56040;BME280;43937;41.366;2.072;2023-05-10T08:58:43;100971.97;;;30.42;23.67
56040;BME280;43937;41.366;2.072;2023-05-10T09:01:09;100978.66;;;30.07;24.63
56040;BME280;43937;41.366;2.072;2023-05-10T09:03:35;100982.06;;;30.43;24.58
56040;BME280;43937;41.366;2.072;2023-05-10T09:06:03;100969.69;;;29.65;24.60
56040;BME280;43937;41.366;2.072;2023-05-10T09:08:30;100978.69;;;29.62;25.62
56040;BME280;43937;41.366;2.072;2023-05-10T09:10:56;100987.59;;;29.75;25.13
56040;BME280;43937;41.366;2.072;2023-05-10T09:13:23;100980.81;;;29.81;25.17
56040;BME280;43937;41.366;2.072;2023-05-10T09:15:49;100983.75;;;30.05;24.11
56040;BME280;43937;41.366;2.072;2023-05-10T09:18:15;100981.41;;;30.17;24.39
56040;BME280;43937;41.366;2.072;2023-05-10T09:20:41;100984.34;;;30.41;24.23
56040;BME280;43937;41.366;2.072;2023-05-10T09:23:07;100974.81;;;30.37;24.71
56040;BME280;43937;41.366;2.072;2023-05-10T09:25:32;100984.16;;;30.27;24.57
56040;BME280;43937;41.366;2.072;2023-05-10T09:28:01;100970.00;;;30.43;24.71
56040;BME280;43937;41.366;2.072;2023-05-10T09:30:29;100980.19;;;30.33;24.06
56040;BME280;43937;41.366;2.072;2023-05-10T09:32:56;100971.41;;;30.40;24.78
56040;BME280;43937;41.366;2.072;2023-05-10T09:35:24;100958.09;;;30.22;23.96
56040;BME280;43937;41.366;2.072;2023-05-10T09:37:53;100964.25;;;29.84;25.41
56040;BME280;43937;41.366;2.072;2023-05-10T09:40:21;100972.31;;;29.96;25.29
56040;BME280;43937;41.366;2.072;2023-05-10T09:42:57;100963.13;;;30.25;25.06
56040;BME280;43937;41.366;2.072;2023-05-10T09:45:28;100961.75;;;29.18;26.52
56040;BME280;43937;41.366;2.072;2023-05-10T09:47:55;100957.06;;;29.58;25.68
56040;BME280;43937;41.366;2.072;2023-05-10T09:50:21;100961.78;;;29.73;25.60
56040;BME280;43937;41.366;2.072;2023-05-10T09:52:52;100961.34;;;29.45;25.25
56040;BME280;43937;41.366;2.072;2023-05-10T09:55:20;100952.53;;;30.11;24.76
56040;BME280;43937;41.366;2.072;2023-05-10T09:57:47;100960.22;;;29.46;26.93
56040;BME280;43937;41.366;2.072;2023-05-10T10:00:18;100945.28;;;28.75;30.03
56040;BME280;43937;41.366;2.072;2023-05-10T10:02:45;100948.31;;;28.89;29.94
56040;BME280;43937;41.366;2.072;2023-05-10T10:05:11;100958.47;;;28.75;33.55
56040;BME280;43937;41.366;2.072;2023-05-10T10:07:37;100923.72;;;27.11;39.67
56040;BME280;43937;41.366;2.072;2023-05-10T10:10:03;100948.06;;;27.78;39.38
56040;BME280;43937;41.366;2.072;2023-05-10T10:13:01;100955.34;;;27.11;40.41
56040;BME280;43937;41.366;2.072;2023-05-10T10:15:27;100951.53;;;27.38;40.51
56040;BME280;43937;41.366;2.072;2023-05-10T10:17:53;100936.75;;;26.90;40.80
56040;BME280;43937;41.366;2.072;2023-05-10T10:20:20;100961.53;;;26.76;41.25
56040;BME280;43937;41.366;2.072;2023-05-10T10:22:47;100955.19;;;27.33;40.24
56040;BME280;43937;41.366;2.072;2023-05-10T10:25:15;100949.91;;;27.42;40.69
56040;BME280;43937;41.366;2.072;2023-05-10T10:30:35;100955.25;;;27.01;41.40
56040;BME280;43937;41.366;2.072;2023-05-10T10:36:45;100911.94;;;26.99;41.07
56040;BME280;43937;41.366;2.072;2023-05-10T10:39:11;100947.38;;;26.88;43.03
56040;BME280;43937;41.366;2.072;2023-05-10T10:42:43;100964.13;;;26.88;42.81
56040;BME280;43937;41.366;2.072;2023-05-10T10:45:13;100954.28;;;26.80;42.49
56040;BME280;43937;41.366;2.072;2023-05-10T10:47:39;100930.84;;;26.07;45.22
56040;BME280;43937;41.366;2.072;2023-05-10T10:50:06;100936.13;;;26.78;43.91
56040;BME280;43937;41.366;2.072;2023-05-10T10:52:34;100956.94;;;27.55;42.31
56040;BME280;43937;41.366;2.072;2023-05-10T10:55:15;100950.63;;;26.69;44.24
56040;BME280;43937;41.366;2.072;2023-05-10T11:00:26;100949.78;;;26.74;45.00
56040;BME280;43937;41.366;2.072;2023-05-10T11:03:06;100952.00;;;26.35;44.53
56040;BME280;43937;41.366;2.072;2023-05-10T11:05:40;100969.41;;;25.66;46.02
56040;BME280;43937;41.366;2.072;2023-05-10T11:08:09;100946.84;;;25.40;46.52
56040;BME280;43937;41.366;2.072;2023-05-10T11:10:35;100937.78;;;25.28;45.60
56040;BME280;43937;41.366;2.072;2023-05-10T11:13:02;100937.63;;;25.40;45.26
56040;BME280;43937;41.366;2.072;2023-05-10T11:15:40;100952.63;;;26.10;43.51
56040;BME280;43937;41.366;2.072;2023-05-10T11:18:18;100953.03;;;25.69;44.06
56040;BME280;43937;41.366;2.072;2023-05-10T11:20:50;100962.81;;;25.06;45.37
56040;BME280;43937;41.366;2.072;2023-05-10T11:23:16;100953.16;;;24.75;45.48
56040;BME280;43937;41.366;2.072;2023-05-10T11:25:44;100965.31;;;24.68;45.69
56040;BME280;43937;41.366;2.072;2023-05-10T11:28:10;100972.84;;;25.07;45.03
56040;BME280;43937;41.366;2.072;2023-05-10T11:30:37;100919.56;;;25.20;44.69
56040;BME280;43937;41.366;2.072;2023-05-10T11:33:03;100960.72;;;24.96;45.32
56040;BME280;43937;41.366;2.072;2023-05-10T11:35:29;100954.19;;;24.68;45.97
56040;BME280;43937;41.366;2.072;2023-05-10T11:37:55;100944.91;;;25.68;45.60
56040;BME280;43937;41.366;2.072;2023-05-10T11:40:24;100943.75;;;25.15;46.87
56040;BME280;43937;41.366;2.072;2023-05-10T11:42:50;100944.06;;;25.40;46.19
56040;BME280;43937;41.366;2.072;2023-05-10T11:45:16;100957.16;;;24.79;48.43
56040;BME280;43937;41.366;2.072;2023-05-10T11:48:07;100953.22;;;25.63;46.41
56040;BME280;43937;41.366;2.072;2023-05-10T11:50:33;100954.31;;;25.84;45.36
56040;BME280;43937;41.366;2.072;2023-05-10T11:52:58;100952.94;;;24.76;47.69
56040;BME280;43937;41.366;2.072;2023-05-10T11:55:24;100939.28;;;23.50;50.62
56040;BME280;43937;41.366;2.072;2023-05-10T11:57:53;100958.50;;;23.80;50.83
56040;BME280;43937;41.366;2.072;2023-05-10T12:00:20;100963.06;;;25.04;47.24
56040;BME280;43937;41.366;2.072;2023-05-10T12:02:51;100966.44;;;25.06;46.54
56040;BME280;43937;41.366;2.072;2023-05-10T12:05:20;100959.00;;;25.12;46.38
56040;BME280;43937;41.366;2.072;2023-05-10T12:07:46;100953.88;;;25.04;47.12
56040;BME280;43937;41.366;2.072;2023-05-10T12:10:12;100969.63;;;24.26;49.77
56040;BME280;43937;41.366;2.072;2023-05-10T12:12:46;100954.69;;;24.82;47.96
56040;BME280;43937;41.366;2.072;2023-05-10T12:19:22;100944.66;;;25.03;45.67
56040;BME280;43937;41.366;2.072;2023-05-10T12:21:48;100953.06;;;25.96;44.57
56040;BME280;43937;41.366;2.072;2023-05-10T12:24:14;100943.16;;;27.38;40.92
56040;BME280;43937;41.366;2.072;2023-05-10T12:26:45;100949.19;;;26.30;42.23
56040;BME280;43937;41.366;2.072;2023-05-10T12:29:20;100946.44;;;25.31;44.72
56040;BME280;43937;41.366;2.072;2023-05-10T12:31:56;100953.16;;;24.75;45.15
56040;BME280;43937;41.366;2.072;2023-05-10T12:34:35;100945.66;;;25.14;43.87
56040;BME280;43937;41.366;2.072;2023-05-10T12:37:12;100950.75;;;25.00;43.77
56040;BME280;43937;41.366;2.072;2023-05-10T12:39:39;100945.09;;;24.56;45.52
56040;BME280;43937;41.366;2.072;2023-05-10T12:42:05;100947.53;;;25.08;44.72
56040;BME280;43937;41.366;2.072;2023-05-10T12:44:31;100940.72;;;24.60;45.67
56040;BME280;43937;41.366;2.072;2023-05-10T12:46:56;100928.59;;;25.10;44.69
56040;BME280;43937;41.366;2.072;2023-05-10T12:49:22;100948.22;;;25.16;44.83
56040;BME280;43937;41.366;2.072;2023-05-10T12:51:48;100942.13;;;24.80;45.20
56040;BME280;43937;41.366;2.072;2023-05-10T12:54:13;100936.50;;;24.58;44.41
56040;BME280;43937;41.366;2.072;2023-05-10T12:56:39;100933.44;;;24.76;44.16
56040;BME280;43937;41.366;2.072;2023-05-10T12:59:06;100920.13;;;24.61;44.36
56040;BME280;43937;41.366;2.072;2023-05-10T13:01:31;100927.69;;;24.83;44.05
56040;BME280;43937;41.366;2.072;2023-05-10T13:03:56;100935.09;;;24.77;44.56
56040;BME280;43937;41.366;2.072;2023-05-10T13:06:22;100933.59;;;24.02;47.01
56040;BME280;43937;41.366;2.072;2023-05-10T13:08:47;100924.06;;;23.52;47.71
56040;BME280;43937;41.366;2.072;2023-05-10T13:11:14;100924.41;;;24.02;46.51
56040;BME280;43937;41.366;2.072;2023-05-10T13:13:42;100912.88;;;23.76;46.98
56040;BME280;43937;41.366;2.072;2023-05-10T13:16:07;100929.91;;;24.13;46.28
56040;BME280;43937;41.366;2.072;2023-05-10T13:18:32;100927.94;;;24.42;45.68
56040;BME280;43937;41.366;2.072;2023-05-10T13:20:58;100907.00;;;24.06;46.18
56040;BME280;43937;41.366;2.072;2023-05-10T13:23:23;100902.94;;;24.31;44.14
56040;BME280;43937;41.366;2.072;2023-05-10T13:25:49;100915.78;;;24.15;44.88
56040;BME280;43937;41.366;2.072;2023-05-10T13:28:16;100932.53;;;24.37;44.71